Time;durP1;ratioP1;P1;durP2;ratioP2;P2;SDS_P1;SDS_P2;PMS_P1;PMS_P2;Temp;Humidity;BMP_temperature;BMP_pressure;BME280_temperature;BME280_humidity;BME280_pressure;Samples;Min_cycle;Max_cycle;Signal;HPM_P1;HPM_P2
2021/11/07 00:01:30;;;;;;;0.50;0.50;;;9.00;99.90;;;;;;4404718;32;20078;-64
2021/11/07 00:03:54;;;;;;;1.65;0.95;;;9.10;99.90;;;;;;4405660;32;20095;-63
2021/11/07 00:06:38;;;;;;;2.05;0.50;;;9.10;99.90;;;;;;4418109;32;20062;-64
2021/11/07 00:10:11;;;;;;;0.65;0.65;;;9.10;99.90;;;;;;4418526;32;20085;-65
2021/11/07 00:11:57;;;;;;;0.30;0.30;;;9.10;99.90;;;;;;4404664;32;20208;-65
2021/11/07 00:14:23;;;;;;;8.15;0.68;;;9.00;99.90;;;;;;4417213;32;20516;-64
2021/11/07 00:16:50;;;;;;;0.40;0.40;;;9.00;99.90;;;;;;4414905;32;20061;-64
2021/11/07 00:19:25;;;;;;;0.50;0.50;;;9.00;99.90;;;;;;4403220;32;20065;-63
2021/11/07 00:22:01;;;;;;;0.62;0.52;;;9.00;99.90;;;;;;4420415;32;20531;-63
2021/11/07 00:24:36;;;;;;;0.32;0.32;;;9.00;99.90;;;;;;4419760;32;20562;-64
2021/11/07 00:27:21;;;;;;;0.43;0.43;;;9.00;99.90;;;;;;4426152;32;20515;-64
2021/11/07 00:29:55;;;;;;;0.70;0.40;;;8.90;99.90;;;;;;4426689;32;20081;-64
2021/11/07 00:33:30;;;;;;;0.57;0.57;;;9.00;99.90;;;;;;4428038;32;20069;-64
2021/11/07 00:36:20;;;;;;;0.70;0.50;;;9.00;99.90;;;;;;4410582;32;20070;-64
2021/11/07 00:37:55;;;;;;;0.40;0.40;;;8.90;99.90;;;;;;4410077;32;20417;-64
2021/11/07 00:42:59;;;;;;;0.75;0.57;;;8.80;99.90;;;;;;4407934;32;20127;-64
2021/11/07 00:45:36;;;;;;;26.50;0.88;;;8.90;99.90;;;;;;4418859;32;20121;-63
2021/11/07 00:48:14;;;;;;;0.70;0.70;;;8.80;99.90;;;;;;4400941;32;20522;-64
2021/11/07 00:51:20;;;;;;;0.40;0.40;;;8.70;99.90;;;;;;4402892;32;20057;-64
2021/11/07 00:54:09;;;;;;;1.15;0.60;;;8.70;99.90;;;;;;4416667;32;20137;-64
2021/11/07 00:56:22;;;;;;;3.92;1.25;;;8.70;99.90;;;;;;4405144;32;20051;-64
2021/11/07 00:59:57;;;;;;;0.77;0.62;;;8.70;99.90;;;;;;4422493;32;20082;-63
2021/11/07 01:01:39;;;;;;;4.50;0.75;;;8.70;99.90;;;;;;4404443;32;20128;-64
2021/11/07 01:04:06;;;;;;;0.98;0.93;;;8.60;99.90;;;;;;4403828;32;20049;-64
2021/11/07 01:06:33;;;;;;;0.32;0.32;;;8.60;99.90;;;;;;4396844;32;20506;-64
2021/11/07 01:09:00;;;;;;;0.57;0.50;;;8.60;99.90;;;;;;4429035;32;20123;-64
2021/11/07 01:11:25;;;;;;;0.95;0.73;;;8.60;99.90;;;;;;4424742;32;20058;-64
2021/11/07 01:13:51;;;;;;;0.73;0.73;;;8.60;99.90;;;;;;4425378;32;20108;-65
2021/11/07 01:16:17;;;;;;;0.80;0.80;;;8.60;99.90;;;;;;4405789;32;20081;-63
2021/11/07 01:18:43;;;;;;;1.77;1.05;;;8.50;99.90;;;;;;4421792;32;20534;-63
2021/11/07 01:21:12;;;;;;;0.30;0.30;;;8.50;99.90;;;;;;4422412;32;20061;-64
2021/11/07 01:23:43;;;;;;;0.60;0.60;;;8.50;99.90;;;;;;4424418;32;20069;-64
2021/11/07 01:26:17;;;;;;;2.28;0.50;;;8.50;99.90;;;;;;4412677;32;20133;-64
2021/11/07 01:28:49;;;;;;;0.60;0.60;;;8.50;99.90;;;;;;4415534;32;20488;-64
2021/11/07 01:31:15;;;;;;;0.30;0.30;;;8.50;99.90;;;;;;4419211;32;20061;-64
2021/11/07 01:33:42;;;;;;;1.17;0.70;;;8.50;99.90;;;;;;4407513;32;20421;-64
2021/11/07 01:36:27;;;;;;;0.65;0.65;;;8.40;99.90;;;;;;4401205;32;20053;-64
2021/11/07 01:39:03;;;;;;;0.77;0.73;;;8.40;99.90;;;;;;4409060;32;20386;-64
2021/11/07 01:41:39;;;;;;;1.00;0.75;;;8.40;99.90;;;;;;4415330;32;20546;-64
2021/11/07 01:44:05;;;;;;;0.60;0.60;;;8.40;99.90;;;;;;4394308;32;20130;-65
2021/11/07 01:46:32;;;;;;;0.50;0.47;;;8.30;99.90;;;;;;4423525;32;20081;-65
2021/11/07 01:49:06;;;;;;;0.70;0.60;;;8.30;99.90;;;;;;4402794;32;20124;-65
2021/11/07 01:51:33;;;;;;;0.50;0.50;;;8.40;99.90;;;;;;4409873;32;20082;-64
2021/11/07 01:54:22;;;;;;;0.45;0.45;;;8.40;99.90;;;;;;4408023;32;20573;-64
2021/11/07 01:56:46;;;;;;;0.52;0.52;;;8.40;99.90;;;;;;4403593;32;20089;-63
2021/11/07 01:59:12;;;;;;;0.40;0.40;;;8.40;99.90;;;;;;4395513;32;20061;-63
2021/11/07 02:01:37;;;;;;;0.95;0.88;;;8.40;99.90;;;;;;4428522;32;20078;-63
2021/11/07 02:04:03;;;;;;;0.60;0.60;;;8.40;99.90;;;;;;4422560;32;20061;-63
2021/11/07 02:06:29;;;;;;;0.55;0.55;;;8.50;99.90;;;;;;4404109;32;20101;-63
2021/11/07 02:08:54;;;;;;;1.27;0.73;;;8.50;99.90;;;;;;4416466;32;20085;-63
2021/11/07 02:11:21;;;;;;;0.57;0.50;;;8.50;99.90;;;;;;4403667;32;20117;-63
2021/11/07 02:13:49;;;;;;;0.40;0.40;;;8.50;99.90;;;;;;4418361;32;20407;-64
2021/11/07 02:16:14;;;;;;;0.50;0.50;;;8.60;99.90;;;;;;4419090;32;20071;-64
2021/11/07 02:18:40;;;;;;;0.45;0.43;;;8.50;99.90;;;;;;4418886;32;20077;-63
2021/11/07 02:21:06;;;;;;;0.47;0.40;;;8.50;99.90;;;;;;4414004;32;20053;-65
2021/11/07 02:23:32;;;;;;;0.75;0.65;;;8.50;99.90;;;;;;4398611;32;20065;-65
2021/11/07 02:26:03;;;;;;;0.60;0.60;;;8.50;99.90;;;;;;4422889;32;20077;-64
2021/11/07 02:28:39;;;;;;;0.32;0.32;;;8.60;99.90;;;;;;4423446;32;20086;-64
2021/11/07 02:31:08;;;;;;;3.90;1.40;;;8.60;99.90;;;;;;4414759;32;20519;-64
2021/11/07 02:33:34;;;;;;;0.57;0.57;;;8.60;99.90;;;;;;4401500;32;20061;-65
2021/11/07 02:36:07;;;;;;;0.60;0.60;;;8.60;99.90;;;;;;4406103;32;20405;-65
2021/11/07 02:38:35;;;;;;;0.40;0.40;;;8.60;99.90;;;;;;4420503;32;20120;-65
2021/11/07 02:41:00;;;;;;;0.60;0.60;;;8.60;99.90;;;;;;4400926;32;20530;-65
2021/11/07 02:43:26;;;;;;;0.40;0.40;;;8.60;99.90;;;;;;4410911;32;20164;-64
2021/11/07 02:45:51;;;;;;;0.30;0.30;;;8.60;99.90;;;;;;4412638;32;20077;-64
2021/11/07 02:48:17;;;;;;;0.60;0.60;;;8.60;99.90;;;;;;4407993;32;20066;-65
2021/11/07 02:50:42;;;;;;;0.30;0.30;;;8.70;99.90;;;;;;4396193;32;20081;-64
2021/11/07 02:53:08;;;;;;;1.92;1.08;;;8.60;99.90;;;;;;4417467;32;20097;-65
2021/11/07 02:55:34;;;;;;;1.30;0.52;;;8.60;99.90;;;;;;4421401;32;20109;-65
2021/11/07 02:58:00;;;;;;;0.40;0.40;;;8.60;99.90;;;;;;4422837;32;20121;-65
2021/11/07 03:00:29;;;;;;;0.43;0.43;;;8.60;99.90;;;;;;4421283;32;20112;-65
2021/11/07 03:02:56;;;;;;;0.40;0.40;;;8.60;99.90;;;;;;4401219;32;20061;-65
2021/11/07 03:05:22;;;;;;;1.75;1.42;;;8.60;99.90;;;;;;4413909;32;20066;-64
2021/11/07 03:07:48;;;;;;;2.83;0.50;;;8.60;99.90;;;;;;4406980;32;20539;-65
2021/11/07 03:10:17;;;;;;;0.65;0.65;;;8.70;99.90;;;;;;4410003;32;20081;-65
2021/11/07 03:12:43;;;;;;;1.80;0.73;;;8.70;99.90;;;;;;4400292;32;20496;-65
2021/11/07 03:15:12;;;;;;;0.60;0.60;;;8.70;99.90;;;;;;4420668;32;20134;-63
2021/11/07 03:17:38;;;;;;;0.45;0.40;;;8.70;99.90;;;;;;4417297;32;20066;-65
2021/11/07 03:20:07;;;;;;;0.45;0.45;;;8.70;99.90;;;;;;4395496;32;20058;-65
2021/11/07 03:22:32;;;;;;;0.40;0.40;;;8.70;99.90;;;;;;4386096;32;20526;-64
2021/11/07 03:24:58;;;;;;;0.50;0.50;;;8.80;99.90;;;;;;4414657;32;20073;-64
2021/11/07 03:27:29;;;;;;;0.40;0.40;;;8.70;99.90;;;;;;4416401;32;20112;-63
2021/11/07 03:29:57;;;;;;;0.50;0.50;;;8.70;99.90;;;;;;4397321;32;20536;-65
2021/11/07 03:32:25;;;;;;;0.43;0.43;;;8.70;99.90;;;;;;4411800;32;20074;-65
2021/11/07 03:34:54;;;;;;;0.47;0.47;;;8.70;99.90;;;;;;4408820;32;20078;-63
2021/11/07 03:37:22;;;;;;;0.22;0.22;;;8.60;99.90;;;;;;4410387;32;20505;-64
2021/11/07 03:39:51;;;;;;;0.77;0.75;;;8.60;99.90;;;;;;4405062;32;20483;-64
2021/11/07 03:42:17;;;;;;;0.90;0.57;;;8.70;99.90;;;;;;4426005;32;20065;-64
2021/11/07 03:44:42;;;;;;;1.73;0.68;;;8.70;99.90;;;;;;4427638;32;20117;-64
2021/11/07 03:47:09;;;;;;;2.37;1.33;;;8.80;99.90;;;;;;4423494;32;20073;-64
2021/11/07 03:49:36;;;;;;;0.77;0.77;;;8.80;99.90;;;;;;4404355;32;20057;-64
2021/11/07 03:52:03;;;;;;;2.65;0.73;;;8.70;99.90;;;;;;4397005;32;20089;-63
2021/11/07 03:54:30;;;;;;;0.52;0.52;;;8.70;99.90;;;;;;4388929;32;20134;-63
2021/11/07 03:56:58;;;;;;;2.53;0.62;;;8.70;99.90;;;;;;4412646;32;20120;-63
2021/11/07 03:59:24;;;;;;;0.80;0.80;;;8.80;99.90;;;;;;4411886;32;20070;-64
2021/11/07 04:01:50;;;;;;;0.62;0.62;;;8.80;99.90;;;;;;4419916;32;20065;-64
2021/11/07 04:04:16;;;;;;;0.70;0.70;;;8.80;99.90;;;;;;4417673;32;20128;-64
2021/11/07 04:06:42;;;;;;;0.40;0.40;;;8.80;99.90;;;;;;4403906;32;20417;-64
2021/11/07 04:09:09;;;;;;;0.30;0.30;;;8.80;99.90;;;;;;4420510;32;20049;-64
2021/11/07 04:11:36;;;;;;;2.35;0.52;;;8.80;99.90;;;;;;4403272;32;20057;-65
2021/11/07 04:14:03;;;;;;;0.50;0.50;;;8.90;99.90;;;;;;4419194;32;20404;-64
2021/11/07 04:16:29;;;;;;;0.55;0.55;;;8.90;99.90;;;;;;4406355;32;20073;-64
2021/11/07 04:18:55;;;;;;;0.70;0.70;;;8.80;99.90;;;;;;4421782;32;20176;-64
2021/11/07 04:21:21;;;;;;;2.37;0.60;;;8.80;99.90;;;;;;4419872;32;20450;-63
2021/11/07 04:23:47;;;;;;;0.88;0.85;;;8.80;99.90;;;;;;4419909;32;20069;-65
2021/11/07 04:26:12;;;;;;;1.80;0.62;;;8.70;99.90;;;;;;4411360;32;20075;-64
2021/11/07 04:28:38;;;;;;;0.37;0.37;;;8.70;99.90;;;;;;4420854;32;20518;-64
2021/11/07 04:31:04;;;;;;;0.55;0.55;;;8.70;99.90;;;;;;4421290;32;85830;-64
2021/11/07 04:33:31;;;;;;;0.35;0.35;;;8.80;99.90;;;;;;4418144;32;20148;-64
2021/11/07 04:35:57;;;;;;;1.17;0.82;;;8.80;99.90;;;;;;4424620;32;20093;-63
2021/11/07 04:38:23;;;;;;;0.50;0.50;;;8.80;99.90;;;;;;4423240;32;20065;-63
2021/11/07 04:40:49;;;;;;;0.43;0.43;;;8.90;99.90;;;;;;4407834;32;20069;-63
2021/11/07 04:43:15;;;;;;;0.52;0.52;;;8.90;99.90;;;;;;4423855;32;20062;-63
2021/11/07 04:45:41;;;;;;;0.40;0.40;;;8.90;99.90;;;;;;4419405;32;20053;-63
2021/11/07 04:48:07;;;;;;;5.75;0.80;;;8.90;99.90;;;;;;4420410;32;20589;-63
2021/11/07 04:50:37;;;;;;;0.50;0.50;;;9.00;99.90;;;;;;4418688;32;20156;-63
2021/11/07 04:53:07;;;;;;;0.40;0.40;;;9.00;99.90;;;;;;4404398;32;20181;-65
2021/11/07 04:55:35;;;;;;;0.30;0.30;;;9.00;99.90;;;;;;4400227;32;20136;-64
2021/11/07 04:58:03;;;;;;;0.30;0.30;;;9.00;99.90;;;;;;4397996;32;20117;-64
2021/11/07 05:00:31;;;;;;;0.40;0.40;;;9.00;99.90;;;;;;4426960;32;20139;-64
2021/11/07 05:02:57;;;;;;;0.50;0.50;;;9.00;99.90;;;;;;4399065;32;20384;-64
2021/11/07 05:05:23;;;;;;;0.55;0.35;;;9.00;99.90;;;;;;4429236;32;20061;-64
2021/11/07 05:07:50;;;;;;;2.62;1.65;;;9.00;99.90;;;;;;4399407;32;20054;-64
2021/11/07 05:10:16;;;;;;;0.60;0.60;;;9.00;99.90;;;;;;4423209;32;20467;-64
2021/11/07 05:12:42;;;;;;;0.35;0.35;;;9.10;99.90;;;;;;4424347;32;20065;-64
2021/11/07 05:15:07;;;;;;;0.25;0.25;;;9.10;99.90;;;;;;4427059;32;20102;-64
2021/11/07 05:17:33;;;;;;;0.80;0.60;;;9.10;99.90;;;;;;4428516;32;20050;-64
2021/11/07 05:19:59;;;;;;;0.50;0.50;;;9.10;99.90;;;;;;4429059;32;20176;-64
2021/11/07 05:22:24;;;;;;;0.30;0.30;;;9.10;99.90;;;;;;4419126;32;20073;-64
2021/11/07 05:24:50;;;;;;;1.20;0.50;;;9.10;99.90;;;;;;4425137;32;20057;-64
2021/11/07 05:27:16;;;;;;;0.35;0.35;;;9.10;99.90;;;;;;4427260;32;20053;-64
2021/11/07 05:29:41;;;;;;;0.60;0.60;;;9.10;99.90;;;;;;4427961;32;20089;-64
2021/11/07 05:32:07;;;;;;;0.47;0.40;;;9.20;99.90;;;;;;4422933;32;20065;-64
2021/11/07 05:34:33;;;;;;;0.30;0.30;;;9.20;99.90;;;;;;4410055;32;20062;-64
2021/11/07 05:36:59;;;;;;;4.28;0.60;;;9.20;99.90;;;;;;4420211;32;20077;-64
2021/11/07 05:39:25;;;;;;;0.40;0.40;;;9.20;99.90;;;;;;4401129;32;20064;-64
2021/11/07 05:41:50;;;;;;;0.30;0.30;;;9.20;99.90;;;;;;4410471;32;20076;-64
2021/11/07 05:44:16;;;;;;;0.50;0.50;;;9.20;99.90;;;;;;4425816;32;20070;-64
2021/11/07 05:46:43;;;;;;;1.10;0.80;;;9.30;99.90;;;;;;4413518;32;20062;-65
2021/11/07 05:49:09;;;;;;;0.40;0.40;;;9.30;99.90;;;;;;4414898;32;20112;-64
2021/11/07 05:51:36;;;;;;;0.62;0.62;;;9.30;99.90;;;;;;4426133;32;20077;-64
2021/11/07 05:54:02;;;;;;;0.40;0.40;;;9.40;99.90;;;;;;4413318;32;20077;-64
2021/11/07 05:56:28;;;;;;;0.30;0.30;;;9.30;99.90;;;;;;4416032;32;20078;-64
2021/11/07 05:58:53;;;;;;;2.05;0.60;;;9.30;99.90;;;;;;4415314;32;20452;-64
2021/11/07 06:01:19;;;;;;;2.12;0.85;;;9.40;99.90;;;;;;4417478;32;20080;-64
2021/11/07 06:03:45;;;;;;;0.50;0.50;;;9.40;99.90;;;;;;4417642;32;20571;-64
2021/11/07 06:06:12;;;;;;;0.50;0.50;;;9.40;99.90;;;;;;4413865;32;20078;-64
2021/11/07 06:08:37;;;;;;;0.45;0.45;;;9.40;99.90;;;;;;4423791;32;20090;-64
2021/11/07 06:11:03;;;;;;;0.68;0.60;;;9.40;99.90;;;;;;4419275;32;20061;-64
2021/11/07 06:13:29;;;;;;;0.40;0.40;;;9.40;99.90;;;;;;4423344;32;20097;-64
2021/11/07 06:15:54;;;;;;;0.98;0.55;;;9.40;99.90;;;;;;4422864;32;20135;-64
2021/11/07 06:18:20;;;;;;;0.40;0.40;;;9.30;99.90;;;;;;4416988;32;20539;-64
2021/11/07 06:20:45;;;;;;;1.67;0.55;;;9.40;99.90;;;;;;4400623;32;20565;-64
2021/11/07 06:23:11;;;;;;;1.85;0.62;;;9.40;99.90;;;;;;4403091;32;20604;-64
2021/11/07 06:25:37;;;;;;;0.50;0.50;;;9.40;99.90;;;;;;4425096;32;20061;-65
2021/11/07 06:28:05;;;;;;;0.43;0.43;;;9.40;99.90;;;;;;4407351;32;20069;-65
2021/11/07 06:30:30;;;;;;;0.60;0.60;;;9.40;99.90;;;;;;4420364;32;20116;-64
2021/11/07 06:32:56;;;;;;;0.25;0.25;;;9.30;99.90;;;;;;4415381;32;20096;-64
2021/11/07 06:35:22;;;;;;;0.60;0.47;;;9.20;99.90;;;;;;4426642;32;20066;-65
2021/11/07 06:37:48;;;;;;;0.45;0.45;;;9.20;99.90;;;;;;4424177;32;20163;-64
2021/11/07 06:40:14;;;;;;;0.90;0.82;;;9.20;99.90;;;;;;4420777;32;20144;-63
2021/11/07 06:42:40;;;;;;;0.40;0.40;;;9.20;99.90;;;;;;4402507;32;20069;-64
2021/11/07 06:45:07;;;;;;;0.40;0.40;;;9.20;99.90;;;;;;4418578;32;20066;-64
2021/11/07 06:47:33;;;;;;;1.65;0.88;;;9.20;99.90;;;;;;4420031;32;20073;-65
2021/11/07 06:49:58;;;;;;;0.40;0.40;;;9.30;99.90;;;;;;4405060;32;20122;-64
2021/11/07 06:52:25;;;;;;;0.40;0.40;;;9.30;99.90;;;;;;4413426;32;20074;-63
2021/11/07 06:54:52;;;;;;;0.80;0.60;;;9.30;99.90;;;;;;4422390;32;20431;-64
2021/11/07 06:57:18;;;;;;;0.40;0.40;;;9.30;99.90;;;;;;4421833;32;20084;-64
2021/11/07 06:59:44;;;;;;;0.20;0.20;;;9.30;99.90;;;;;;4415765;32;20498;-64
2021/11/07 07:02:09;;;;;;;0.43;0.43;;;9.30;99.90;;;;;;4414641;32;20150;-63
2021/11/07 07:04:35;;;;;;;2.53;0.60;;;9.40;99.90;;;;;;4417973;32;20456;-64
2021/11/07 07:07:01;;;;;;;1.55;0.60;;;9.40;99.90;;;;;;4402232;32;20096;-66
2021/11/07 07:09:31;;;;;;;0.50;0.50;;;9.40;99.90;;;;;;4416091;32;20109;-64
2021/11/07 07:12:17;;;;;;;0.30;0.30;;;9.30;99.90;;;;;;4420899;32;20438;-64
2021/11/07 07:14:51;;;;;;;0.22;0.22;;;9.40;99.90;;;;;;4387809;32;20124;-64
2021/11/07 07:17:41;;;;;;;0.30;0.30;;;9.40;99.90;;;;;;4425740;32;20509;-64
2021/11/07 07:20:15;;;;;;;2.00;0.98;;;9.40;99.90;;;;;;4414569;32;20093;-64
2021/11/07 07:23:04;;;;;;;0.70;0.47;;;9.40;99.90;;;;;;4413005;32;20110;-64
2021/11/07 07:26:52;;;;;;;0.70;0.70;;;9.40;99.90;;;;;;4408208;32;20074;-64
2021/11/07 07:28:22;;;;;;;0.52;0.52;;;9.30;99.90;;;;;;4405497;32;20491;-64
2021/11/07 07:31:20;;;;;;;0.40;0.40;;;9.30;99.90;;;;;;4417407;32;20077;-64
2021/11/07 07:33:39;;;;;;;0.68;0.60;;;9.30;99.90;;;;;;4397771;32;20129;-64
2021/11/07 07:36:05;;;;;;;2.80;0.60;;;9.30;99.90;;;;;;4422995;32;20390;-64
2021/11/07 07:38:30;;;;;;;0.45;0.45;;;9.30;99.90;;;;;;4428305;32;20073;-64
2021/11/07 07:40:57;;;;;;;0.30;0.30;;;9.30;99.90;;;;;;4401753;32;20061;-64
2021/11/07 07:43:23;;;;;;;0.37;0.37;;;9.20;99.90;;;;;;4409989;32;20086;-64
2021/11/07 07:45:49;;;;;;;0.40;0.40;;;9.20;99.90;;;;;;4421680;32;20115;-64
2021/11/07 07:48:16;;;;;;;0.40;0.40;;;9.20;99.90;;;;;;4420016;32;20476;-63
2021/11/07 07:50:42;;;;;;;0.50;0.50;;;9.20;99.90;;;;;;4414267;32;20538;-64
2021/11/07 07:53:08;;;;;;;0.37;0.37;;;9.10;99.90;;;;;;4419406;32;20130;-64
2021/11/07 07:55:34;;;;;;;0.25;0.25;;;9.20;99.90;;;;;;4396138;32;20061;-64
2021/11/07 07:58:00;;;;;;;0.40;0.40;;;9.20;99.90;;;;;;4418605;32;20431;-63
2021/11/07 08:00:27;;;;;;;0.45;0.45;;;9.10;99.90;;;;;;4419672;32;20135;-64
2021/11/07 08:02:53;;;;;;;0.70;0.70;;;9.10;99.90;;;;;;4402224;32;20116;-64
2021/11/07 08:05:18;;;;;;;0.47;0.47;;;9.10;99.90;;;;;;4407007;32;20074;-64
2021/11/07 08:07:44;;;;;;;0.55;0.55;;;9.10;99.90;;;;;;4420993;32;20068;-63
2021/11/07 08:10:12;;;;;;;0.37;0.37;;;9.20;99.90;;;;;;4419889;32;20066;-63
2021/11/07 08:12:39;;;;;;;0.40;0.40;;;9.20;99.90;;;;;;4427514;32;20062;-63
2021/11/07 08:15:05;;;;;;;0.30;0.30;;;9.10;99.90;;;;;;4415064;32;20074;-63
2021/11/07 08:17:31;;;;;;;0.45;0.45;;;9.20;99.90;;;;;;4403536;32;20479;-63
2021/11/07 08:19:57;;;;;;;0.60;0.60;;;9.20;99.90;;;;;;4418178;32;20069;-63
2021/11/07 08:22:22;;;;;;;0.20;0.20;;;9.20;99.90;;;;;;4419263;32;20066;-64
2021/11/07 08:24:48;;;;;;;0.40;0.40;;;9.20;99.90;;;;;;4413817;32;20073;-64
2021/11/07 08:27:15;;;;;;;0.32;0.32;;;9.30;99.90;;;;;;4420215;32;20061;-63
2021/11/07 08:29:41;;;;;;;0.40;0.40;;;9.40;99.90;;;;;;4406086;32;20069;-64
2021/11/07 08:32:07;;;;;;;0.40;0.40;;;9.50;99.90;;;;;;4420131;32;20628;-64
2021/11/07 08:34:34;;;;;;;0.40;0.40;;;9.50;99.90;;;;;;4416101;32;20073;-63
2021/11/07 08:37:05;;;;;;;0.80;0.50;;;9.50;99.90;;;;;;4417513;32;20073;-64
2021/11/07 08:39:36;;;;;;;0.40;0.40;;;9.60;99.90;;;;;;4400228;32;20058;-64
2021/11/07 08:42:08;;;;;;;0.60;0.60;;;9.60;99.90;;;;;;4409560;32;20074;-64
2021/11/07 09:00:32;;;;;;;0.30;0.30;;;9.90;99.90;;;;;;4388917;32;20442;-64
2021/11/07 09:01:23;;;;;;;0.30;0.30;;;10.00;99.90;;;;;;4402033;32;20082;-64
2021/11/07 09:03:54;;;;;;;0.50;0.50;;;10.00;99.90;;;;;;4425555;32;20137;-64
2021/11/07 09:08:49;;;;;;;1.17;0.65;;;10.10;99.90;;;;;;4403254;32;20523;-64
2021/11/07 09:11:16;;;;;;;0.30;0.30;;;10.10;99.90;;;;;;4410431;32;20109;-64
2021/11/07 09:13:42;;;;;;;0.55;0.55;;;10.10;99.90;;;;;;4403781;32;20065;-64
2021/11/07 09:16:09;;;;;;;0.50;0.50;;;10.10;99.90;;;;;;4415388;32;20061;-64
2021/11/07 09:18:36;;;;;;;0.43;0.40;;;10.10;99.90;;;;;;4418011;32;20268;-64
2021/11/07 09:21:09;;;;;;;0.60;0.60;;;10.10;99.90;;;;;;4411004;32;20085;-64
2021/11/07 09:23:42;;;;;;;0.30;0.30;;;10.20;99.90;;;;;;4413588;32;20089;-64
2021/11/07 09:26:21;;;;;;;2.37;1.30;;;10.20;99.90;;;;;;4408355;32;20511;-64
2021/11/07 09:28:53;;;;;;;0.30;0.30;;;10.20;99.90;;;;;;4414080;32;20065;-64
2021/11/07 09:34:09;;;;;;;0.40;0.40;;;10.30;99.90;;;;;;4410284;32;20065;-64
2021/11/07 09:36:41;;;;;;;0.50;0.50;;;10.30;99.90;;;;;;4427664;32;20484;-63
2021/11/07 09:39:18;;;;;;;1.70;1.17;;;10.30;99.90;;;;;;4413312;32;20167;-64
2021/11/07 09:44:20;;;;;;;0.45;0.45;;;10.30;99.90;;;;;;4427653;32;20061;-64
2021/11/07 09:49:20;;;;;;;0.40;0.40;;;10.30;99.90;;;;;;4427697;32;20482;-64
2021/11/07 09:51:55;;;;;;;0.40;0.40;;;10.30;99.90;;;;;;4414099;32;20057;-64
2021/11/07 09:54:21;;;;;;;0.40;0.40;;;10.40;99.90;;;;;;4414686;32;20125;-64
2021/11/07 09:56:51;;;;;;;0.32;0.32;;;10.40;99.90;;;;;;4414615;32;20053;-64
2021/11/07 09:59:17;;;;;;;0.25;0.25;;;10.40;99.90;;;;;;4411225;32;20061;-64
2021/11/07 10:01:44;;;;;;;0.65;0.62;;;10.40;99.90;;;;;;4414609;32;20672;-65
2021/11/07 10:04:12;;;;;;;0.85;0.65;;;10.40;99.90;;;;;;4414959;32;20057;-64
2021/11/07 10:06:45;;;;;;;0.52;0.52;;;10.40;99.90;;;;;;4413066;32;20124;-64
2021/11/07 10:09:12;;;;;;;0.40;0.40;;;10.60;99.90;;;;;;4412728;32;20143;-64
2021/11/07 10:12:18;;;;;;;0.50;0.50;;;10.70;99.90;;;;;;4410127;32;20053;-64
2021/11/07 10:14:51;;;;;;;0.52;0.52;;;10.80;99.90;;;;;;4417735;32;20598;-64
2021/11/07 10:17:23;;;;;;;1.02;0.60;;;11.10;99.90;;;;;;4410744;32;20085;-64
2021/11/07 10:20:32;;;;;;;1.80;0.85;;;11.20;99.90;;;;;;4414172;32;20078;-64
2021/11/07 10:23:05;;;;;;;0.40;0.40;;;11.10;99.90;;;;;;4427096;32;20092;-63
2021/11/07 10:25:57;;;;;;;0.20;0.20;;;11.00;99.90;;;;;;4413888;32;20126;-64
2021/11/07 10:28:29;;;;;;;0.20;0.20;;;11.00;99.90;;;;;;4397721;32;20101;-63
2021/11/07 10:31:07;;;;;;;0.65;0.65;;;10.80;99.90;;;;;;4398419;32;20069;-63
2021/11/07 10:33:57;;;;;;;0.60;0.60;;;10.80;99.90;;;;;;4397218;32;20072;-63
2021/11/07 10:36:50;;;;;;;3.42;0.60;;;10.70;99.90;;;;;;4405645;32;20069;-64
2021/11/07 10:39:20;;;;;;;0.40;0.40;;;10.60;99.90;;;;;;4408355;32;20120;-64
2021/11/07 10:42:09;;;;;;;0.40;0.40;;;10.60;99.90;;;;;;4408414;32;20073;-64
2021/11/07 10:47:33;;;;;;;0.80;0.57;;;10.50;99.90;;;;;;4413142;32;20142;-64
2021/11/07 10:52:06;;;;;;;1.08;0.98;;;10.40;99.90;;;;;;4416294;32;20512;-63
2021/11/07 10:52:49;;;;;;;0.40;0.40;;;10.50;99.90;;;;;;4415046;32;20547;-64
2021/11/07 10:55:19;;;;;;;0.60;0.60;;;10.50;99.90;;;;;;4413915;32;20058;-64
2021/11/07 10:57:53;;;;;;;0.30;0.30;;;10.50;99.90;;;;;;4414865;32;20058;-72
2021/11/07 11:00:30;;;;;;;0.30;0.30;;;10.40;99.90;;;;;;4419916;32;20054;-64
2021/11/07 11:03:02;;;;;;;0.43;0.43;;;10.40;99.90;;;;;;4426828;32;20120;-64
2021/11/07 11:05:47;;;;;;;0.35;0.35;;;10.30;99.90;;;;;;4415385;32;20072;-64
2021/11/07 11:08:22;;;;;;;0.30;0.30;;;10.20;99.90;;;;;;4428005;32;20113;-64
2021/11/07 11:11:02;;;;;;;0.40;0.40;;;10.30;99.90;;;;;;4426779;32;20456;-64
2021/11/07 11:13:39;;;;;;;0.80;0.80;;;10.30;99.90;;;;;;4425262;32;20065;-65
2021/11/07 11:16:24;;;;;;;0.95;0.43;;;10.10;99.90;;;;;;4430757;32;20081;-64
2021/11/07 11:24:36;;;;;;;1.00;0.45;;;9.90;99.90;;;;;;4424577;32;20117;-64
2021/11/07 11:26:51;;;;;;;0.40;0.40;;;9.80;99.90;;;;;;4417816;32;20098;-64
2021/11/07 11:32:07;;;;;;;15.50;0.70;;;9.80;99.90;;;;;;4429158;32;20133;-64
2021/11/07 11:34:36;;;;;;;0.50;0.50;;;9.80;99.90;;;;;;4388866;32;20102;-64
2021/11/07 11:37:12;;;;;;;;;;;9.60;99.90;;;;;;4427876;32;20150;-65
2021/11/07 11:39:42;;;;;;;0.70;0.50;;;9.50;99.90;;;;;;4426202;32;19977;-64
2021/11/07 11:44:41;;;;;;;0.37;0.37;;;9.30;99.90;;;;;;4429482;32;20141;-65
2021/11/07 11:47:46;;;;;;;0.45;0.45;;;9.20;99.90;;;;;;4429429;32;20424;-65
2021/11/07 11:52:45;;;;;;;0.30;0.30;;;9.00;99.90;;;;;;4429114;32;20120;-65
2021/11/07 11:56:31;;;;;;;0.30;0.30;;;8.90;99.90;;;;;;4428998;32;20069;-64
2021/11/07 11:58:18;;;;;;;0.20;0.20;;;8.80;99.90;;;;;;4406649;32;20140;-64
2021/11/07 12:00:54;;;;;;;0.30;0.30;;;8.70;99.90;;;;;;4429064;32;20136;-64
2021/11/07 12:06:36;;;;;;;0.45;0.45;;;8.70;99.90;;;;;;4416273;32;20154;-65
2021/11/07 12:12:15;;;;;;;0.20;0.20;;;8.90;99.90;;;;;;4427242;32;20470;-65
2021/11/07 12:15:26;;;;;;;0.20;0.20;;;9.00;99.90;;;;;;4398833;32;20073;-65
2021/11/07 12:18:05;;;;;;;0.25;0.25;;;9.20;99.90;;;;;;4419194;32;20112;-65
2021/11/07 12:20:34;;;;;;;0.22;0.22;;;9.30;99.90;;;;;;4426928;32;20073;-65
2021/11/07 12:23:18;;;;;;;0.52;0.52;;;9.50;99.90;;;;;;4415071;32;20073;-65
2021/11/07 12:25:46;;;;;;;0.37;0.37;;;9.70;99.90;;;;;;4415040;32;20125;-65
2021/11/07 12:28:14;;;;;;;0.40;0.40;;;9.80;99.90;;;;;;4414707;32;20416;-64
2021/11/07 12:30:40;;;;;;;0.25;0.25;;;9.80;99.90;;;;;;4409076;32;20337;-65
2021/11/07 12:33:09;;;;;;;27.85;0.60;;;9.80;99.90;;;;;;4413588;32;20101;-64
2021/11/07 12:35:39;;;;;;;0.20;0.20;;;9.90;99.90;;;;;;4415919;32;20475;-64
2021/11/07 12:40:33;;;;;;;0.30;0.30;;;9.80;99.90;;;;;;4421984;32;20074;-64
2021/11/07 12:41:15;;;;;;;0.32;0.32;;;9.90;99.90;;;;;;4386451;32;20078;-64
2021/11/07 12:43:43;;;;;;;0.40;0.40;;;9.80;99.90;;;;;;4414838;32;20177;-65
2021/11/07 12:46:16;;;;;;;0.30;0.30;;;9.80;99.90;;;;;;4411435;32;20081;-65
2021/11/07 12:48:47;;;;;;;1.00;0.85;;;9.70;99.90;;;;;;4400998;32;20465;-65
2021/11/07 12:51:15;;;;;;;;;;;9.70;99.90;;;;;;4413628;32;20081;-64
2021/11/07 12:54:03;;;;;;;0.22;0.22;;;9.70;99.90;;;;;;4415087;32;19953;-64
2021/11/07 12:56:52;;;;;;;0.40;0.40;;;9.70;99.90;;;;;;4416746;32;20140;-65
2021/11/07 12:59:24;;;;;;;3.87;1.02;;;9.60;99.90;;;;;;4410829;32;20049;-65
2021/11/07 13:02:12;;;;;;;0.40;0.40;;;9.70;99.90;;;;;;4421230;32;20065;-64
2021/11/07 13:05:00;;;;;;;3.10;0.50;;;9.70;99.90;;;;;;4400987;32;20053;-65
2021/11/07 13:07:31;;;;;;;0.95;0.57;;;9.60;99.90;;;;;;4426798;32;20050;-64
2021/11/07 13:10:01;;;;;;;0.32;0.32;;;9.70;99.90;;;;;;4405590;32;20053;-65
2021/11/07 13:12:33;;;;;;;0.68;0.68;;;9.80;99.90;;;;;;4412815;32;20102;-65
2021/11/07 13:15:51;;;;;;;0.40;0.40;;;9.90;99.90;;;;;;4388036;32;20085;-65
2021/11/07 13:18:15;;;;;;;0.30;0.30;;;9.90;99.90;;;;;;4406216;32;20078;-64
2021/11/07 13:20:54;;;;;;;0.50;0.50;;;9.90;99.90;;;;;;4429269;32;20081;-63
2021/11/07 13:26:01;;;;;;;0.88;0.70;;;9.80;99.90;;;;;;4413733;32;20440;-64
2021/11/07 13:28:36;;;;;;;0.55;0.55;;;9.80;99.90;;;;;;4416245;32;20056;-64
2021/11/07 13:31:12;;;;;;;0.40;0.40;;;9.80;99.90;;;;;;4422557;32;20476;-65
2021/11/07 13:33:41;;;;;;;0.30;0.30;;;9.80;99.90;;;;;;4423957;32;20120;-63
2021/11/07 13:36:07;;;;;;;0.30;0.30;;;9.60;99.90;;;;;;4429301;32;20562;-64
2021/11/07 13:38:52;;;;;;;0.20;0.20;;;9.60;99.90;;;;;;4418022;32;20287;-64
2021/11/07 13:41:23;;;;;;;5.97;1.12;;;9.60;99.90;;;;;;4419165;32;20066;-65
2021/11/07 13:43:58;;;;;;;0.30;0.30;;;9.60;99.90;;;;;;4416273;32;20085;-64
2021/11/07 13:46:24;;;;;;;2.35;0.75;;;9.70;99.90;;;;;;4416937;32;20085;-64
2021/11/07 13:49:02;;;;;;;0.30;0.30;;;9.70;99.90;;;;;;4403111;32;20078;-64
2021/11/07 13:51:34;;;;;;;0.37;0.37;;;9.70;99.90;;;;;;4412783;32;20488;-64
2021/11/07 13:54:02;;;;;;;0.77;0.77;;;9.80;99.90;;;;;;4416305;32;20420;-64
2021/11/07 13:56:29;;;;;;;3.37;0.60;;;9.80;99.90;;;;;;4404553;32;20434;-65
2021/11/07 13:58:54;;;;;;;0.55;0.50;;;9.80;99.90;;;;;;4418214;32;20187;-65
2021/11/07 14:01:20;;;;;;;2.83;0.80;;;9.80;99.90;;;;;;4411592;32;20569;-64
2021/11/07 14:03:52;;;;;;;0.40;0.40;;;9.70;99.90;;;;;;4412476;32;20082;-64
2021/11/07 14:06:29;;;;;;;0.20;0.20;;;9.60;99.90;;;;;;4419062;32;20117;-64